createdAt,value
2022-11-20T00:11:15.506Z,-3.82
2022-11-20T00:27:19.828Z,-4.47
2022-11-20T00:43:26.843Z,-3.95
2022-11-20T00:51:35.097Z,-3.89
2022-11-20T01:07:28.829Z,-4.55
2022-11-20T05:46:50.699Z,-5.83
2022-11-20T05:49:17.039Z,-5.85
2022-11-20T05:51:43.842Z,-5.76
2022-11-20T05:54:10.126Z,-5.82
2022-11-20T06:01:51.843Z,-5.90
2022-11-20T06:23:07.199Z,-5.96
2022-11-20T06:25:33.501Z,-6.00
2022-11-20T06:28:00.174Z,-5.89
2022-11-20T07:44:39.998Z,-3.91
2022-11-20T08:48:35.369Z,-2.61
2022-11-20T08:51:03.518Z,-2.49
2022-11-20T09:01:36.222Z,-2.53
2022-11-20T09:04:02.615Z,-2.57
2022-11-20T09:09:10.764Z,-2.46
2022-11-20T09:11:37.286Z,-2.36
2022-11-20T09:14:04.106Z,-2.45
2022-11-20T09:16:30.512Z,-2.23
2022-11-20T09:21:32.247Z,-1.83
2022-11-20T09:23:59.098Z,-1.70
2022-11-20T09:26:25.392Z,-1.41
2022-11-20T09:28:56.991Z,-1.34
2022-11-20T09:31:26.932Z,-1.33
2022-11-20T09:33:53.505Z,-1.28
2022-11-20T09:36:20.342Z,-1.08
2022-11-20T09:38:47.766Z,-0.93
2022-11-20T09:41:32.814Z,-0.94
2022-11-20T09:44:08.906Z,-0.80
2022-11-20T09:54:42.571Z,-0.67
2022-11-20T09:57:15.945Z,-0.57
2022-11-20T10:02:46.023Z,-0.46
2022-11-20T10:13:42.375Z,0.00
2022-11-20T11:24:46.242Z,1.16
2022-11-20T11:30:16.023Z,1.28
2022-11-20T12:18:40.136Z,2.02
2022-11-20T12:43:07.280Z,1.85
2022-11-20T12:57:26.265Z,1.93
2022-11-20T13:00:07.800Z,1.97
2022-11-20T13:02:52.744Z,2.01
2022-11-20T13:05:31.262Z,2.01
2022-11-20T13:07:59.159Z,2.00
2022-11-20T13:10:45.021Z,2.02
2022-11-20T13:13:34.393Z,2.07
2022-11-20T13:16:17.187Z,2.08
2022-11-20T13:18:43.817Z,2.04
2022-11-20T13:21:36.162Z,2.03
2022-11-20T13:24:21.900Z,2.09
2022-11-20T13:26:48.494Z,2.03
2022-11-20T13:29:19.640Z,2.02
2022-11-20T13:31:48.297Z,2.03
2022-11-20T13:34:25.063Z,2.06
2022-11-20T13:36:54.189Z,2.03
2022-11-20T13:39:52.272Z,2.04
2022-11-20T13:42:28.622Z,2.08
2022-11-20T13:45:01.299Z,2.02
2022-11-20T13:47:29.095Z,2.11
2022-11-20T13:49:59.945Z,2.10
2022-11-20T13:53:11.522Z,2.10
2022-11-20T13:55:46.904Z,2.10
2022-11-20T13:58:34.702Z,2.11
2022-11-20T14:01:16.008Z,2.14
2022-11-20T14:06:32.280Z,2.11
2022-11-20T14:09:00.257Z,2.12
2022-11-20T14:11:31.523Z,2.10
2022-11-20T14:14:03.979Z,2.11
2022-11-20T14:16:35.766Z,2.12
2022-11-20T14:19:20.208Z,2.14
2022-11-20T14:21:48.016Z,2.25
2022-11-20T14:24:15.053Z,2.30
2022-11-20T14:26:45.356Z,2.19
2022-11-20T14:29:21.104Z,2.13
2022-11-20T14:31:54.148Z,2.15
2022-11-20T14:34:31.191Z,2.19
2022-11-20T14:37:03.512Z,2.15
2022-11-20T14:39:37.008Z,2.21
2022-11-20T14:42:15.443Z,2.22
2022-11-20T14:44:42.902Z,2.19
2022-11-20T14:47:13.636Z,2.19
2022-11-20T14:49:41.503Z,2.18
2022-11-20T14:52:18.253Z,2.21
2022-11-20T14:54:54.306Z,2.24
2022-11-20T14:57:27.950Z,2.20
2022-11-20T15:00:12.315Z,2.21
2022-11-20T15:02:46.910Z,2.20
2022-11-20T15:05:14.281Z,2.21
2022-11-20T15:07:44.084Z,2.22
2022-11-20T15:10:20.875Z,2.21
2022-11-20T15:12:52.230Z,2.21
2022-11-20T15:15:42.387Z,2.22
2022-11-20T15:18:17.654Z,2.24
2022-11-20T15:20:44.755Z,2.23
2022-11-20T15:23:16.874Z,2.28
2022-11-20T15:25:43.538Z,2.28
2022-11-20T15:28:34.815Z,2.27
2022-11-20T15:31:01.990Z,2.27
2022-11-20T15:33:28.523Z,2.31
2022-11-20T15:35:54.879Z,2.30
2022-11-20T15:38:21.303Z,2.28
2022-11-20T15:40:47.728Z,2.31
2022-11-20T15:43:14.220Z,2.33
2022-11-20T15:45:44.797Z,2.34
2022-11-20T15:48:22.621Z,2.36
2022-11-20T15:51:01.118Z,2.40
2022-11-20T15:53:27.522Z,2.39
2022-11-20T15:55:54.157Z,2.37
2022-11-20T15:58:21.117Z,2.42
2022-11-20T16:00:47.564Z,2.42
2022-11-20T16:03:19.939Z,2.49
2022-11-20T16:05:46.499Z,2.53
2022-11-20T16:08:15.269Z,2.51
2022-11-20T16:10:42.300Z,2.54
2022-11-20T16:13:17.305Z,2.56
2022-11-20T16:15:52.015Z,2.55
2022-11-20T16:18:20.283Z,2.54
2022-11-20T16:20:49.214Z,2.62
2022-11-20T16:23:16.491Z,2.63
2022-11-20T16:25:44.176Z,2.69
2022-11-20T16:28:15.968Z,2.66
2022-11-20T16:30:45.281Z,2.65
2022-11-20T16:33:15.406Z,2.73
2022-11-20T16:35:42.236Z,2.74
2022-11-20T16:38:08.700Z,2.71
2022-11-20T16:40:35.467Z,2.76
2022-11-20T16:43:14.539Z,2.77
2022-11-20T16:45:42.895Z,2.81
2022-11-20T16:48:13.319Z,2.75
2022-11-20T16:50:46.183Z,2.78
2022-11-20T16:53:12.690Z,2.80
2022-11-20T16:55:39.006Z,2.80
2022-11-20T16:58:05.371Z,2.88
2022-11-20T17:00:31.739Z,2.87
2022-11-20T17:02:58.122Z,2.86
2022-11-20T17:05:24.471Z,2.85
2022-11-20T17:07:50.899Z,2.85
2022-11-20T17:10:17.298Z,2.96
2022-11-20T17:12:44.717Z,2.93
2022-11-20T17:15:11.213Z,2.91
2022-11-20T17:17:37.506Z,2.89
2022-11-20T17:20:04.372Z,2.97
2022-11-20T17:22:32.511Z,2.92
2022-11-20T17:24:58.863Z,2.93
2022-11-20T17:27:25.376Z,2.94
2022-11-20T17:29:54.673Z,2.93
2022-11-20T17:32:21.100Z,2.94
2022-11-20T17:34:48.784Z,2.91
2022-11-20T17:37:15.491Z,2.94
2022-11-20T17:39:41.925Z,2.98
2022-11-20T17:42:08.336Z,3.00
2022-11-20T17:44:34.841Z,2.99
2022-11-20T17:47:01.256Z,2.95
2022-11-20T17:49:28.727Z,2.94
2022-11-20T17:51:55.097Z,2.89
2022-11-20T17:54:23.224Z,2.93
2022-11-20T17:56:50.040Z,2.89
2022-11-20T17:59:16.819Z,2.89
2022-11-20T18:01:44.455Z,2.86
2022-11-20T18:04:11.971Z,2.92
2022-11-20T18:06:38.840Z,2.85
2022-11-20T18:09:06.186Z,2.87
2022-11-20T18:11:38.124Z,2.86
2022-11-20T18:14:08.814Z,2.91
2022-11-20T18:16:38.609Z,2.98
2022-11-20T18:19:05.047Z,2.93
2022-11-20T18:21:31.532Z,2.85
2022-11-20T18:23:58.458Z,2.83
2022-11-20T18:26:28.692Z,2.87
2022-11-20T18:28:55.536Z,2.79
2022-11-20T18:31:22.160Z,2.84
2022-11-20T18:33:48.868Z,2.83
2022-11-20T18:36:20.544Z,2.78
2022-11-20T18:38:49.650Z,2.76
2022-11-20T18:41:19.208Z,2.78
2022-11-20T18:43:45.807Z,2.83
2022-11-20T18:46:12.286Z,2.78
2022-11-20T18:48:38.730Z,2.77
2022-11-20T18:51:07.248Z,2.74
2022-11-20T18:53:36.892Z,2.73
2022-11-20T18:56:04.981Z,2.77
2022-11-20T18:58:33.024Z,2.81
2022-11-20T19:01:08.385Z,2.80
2022-11-20T19:03:35.010Z,2.88
2022-11-20T19:06:01.405Z,2.88
2022-11-20T19:08:28.383Z,2.84
2022-11-20T19:10:54.705Z,2.82
2022-11-20T19:13:28.000Z,2.79
2022-11-20T19:15:54.303Z,2.86
2022-11-20T19:18:20.962Z,2.89
2022-11-20T19:20:47.357Z,2.81
2022-11-20T19:23:14.137Z,2.75
2022-11-20T19:25:40.552Z,2.75
2022-11-20T19:28:06.881Z,2.75
2022-11-20T19:30:33.258Z,2.76
2022-11-20T19:32:59.586Z,2.77
2022-11-20T19:35:26.130Z,2.76
2022-11-20T19:37:53.046Z,2.71
2022-11-20T19:40:19.490Z,2.80
2022-11-20T19:42:45.838Z,2.78
2022-11-20T19:45:12.387Z,2.75
2022-11-20T19:48:07.149Z,2.73
2022-11-20T19:50:25.027Z,2.71
2022-11-20T19:52:57.234Z,2.71
2022-11-20T19:55:24.957Z,2.70
2022-11-20T19:57:51.676Z,2.72
2022-11-20T20:00:26.677Z,2.74
2022-11-20T20:02:57.432Z,2.72
2022-11-20T20:05:24.167Z,2.74
2022-11-20T20:07:50.677Z,2.73
2022-11-20T20:10:17.303Z,2.75
2022-11-20T20:12:43.848Z,2.72
2022-11-20T20:15:10.227Z,2.74
2022-11-20T20:17:36.651Z,2.77
2022-11-20T20:20:03.319Z,2.79
2022-11-20T20:22:29.700Z,2.80
2022-11-20T20:24:56.067Z,2.77
2022-11-20T20:27:22.617Z,2.78
2022-11-20T20:29:49.126Z,2.79
2022-11-20T20:32:15.678Z,2.75
2022-11-20T20:34:42.126Z,2.79
2022-11-20T20:37:08.500Z,2.80
2022-11-20T20:39:34.786Z,2.79
2022-11-20T20:42:01.074Z,2.81
2022-11-20T20:44:27.390Z,2.79
2022-11-20T20:46:53.911Z,2.77
2022-11-20T20:49:20.256Z,2.78
2022-11-20T20:51:46.581Z,2.80
2022-11-20T20:54:12.869Z,2.78
2022-11-20T20:56:39.216Z,2.81
2022-11-20T20:59:06.088Z,2.71
2022-11-20T21:01:32.555Z,2.75
2022-11-20T21:03:59.087Z,2.77
2022-11-20T21:06:26.310Z,2.79
2022-11-20T21:08:52.729Z,2.78
2022-11-20T21:11:20.183Z,2.86
2022-11-20T21:13:47.664Z,2.84
2022-11-20T21:16:15.150Z,2.80
2022-11-20T21:18:41.628Z,2.84
2022-11-20T21:21:11.780Z,2.77
2022-11-20T21:23:38.413Z,2.77
2022-11-20T21:26:08.981Z,2.80
2022-11-20T21:28:36.796Z,2.78
2022-11-20T21:31:11.899Z,2.80
2022-11-20T21:33:43.600Z,2.82
2022-11-20T21:36:11.878Z,2.84
2022-11-20T21:38:38.700Z,2.86
2022-11-20T21:41:07.079Z,2.83
2022-11-20T21:43:33.861Z,2.87
2022-11-20T21:46:01.887Z,2.89
2022-11-20T21:48:32.226Z,2.91
2022-11-20T21:51:07.254Z,2.92
2022-11-20T21:53:34.561Z,2.89
2022-11-20T21:56:01.472Z,2.91
2022-11-20T21:58:28.202Z,2.93
2022-11-20T22:00:54.554Z,2.95
2022-11-20T22:03:21.297Z,2.91
2022-11-20T22:05:58.073Z,2.95
2022-11-20T22:08:25.227Z,2.94
2022-11-20T22:11:00.584Z,2.89
2022-11-20T22:13:27.928Z,2.92
2022-11-20T22:16:00.892Z,2.88
2022-11-20T22:18:27.605Z,2.91
2022-11-20T22:20:54.199Z,2.88
2022-11-20T22:23:20.548Z,2.90
2022-11-20T22:25:46.958Z,2.86
2022-11-20T22:28:13.338Z,2.89
2022-11-20T22:30:39.691Z,2.96
2022-11-20T22:33:11.976Z,2.86
2022-11-20T22:35:39.815Z,2.89
2022-11-20T22:38:06.165Z,2.90
2022-11-20T22:40:32.790Z,2.91
2022-11-20T22:42:59.153Z,2.92
2022-11-20T22:45:25.464Z,2.90
2022-11-20T22:47:51.815Z,2.82
2022-11-20T22:50:18.136Z,2.89
2022-11-20T22:52:44.457Z,2.89
2022-11-20T22:55:15.056Z,2.81
2022-11-20T22:57:42.739Z,2.87
2022-11-20T23:00:09.711Z,2.85
2022-11-20T23:02:36.063Z,2.83
2022-11-20T23:05:02.485Z,2.88
2022-11-20T23:07:29.060Z,2.84
2022-11-20T23:09:55.435Z,2.86
2022-11-20T23:12:21.777Z,2.81
2022-11-20T23:14:48.311Z,2.86
2022-11-20T23:17:14.708Z,2.86
2022-11-20T23:19:41.112Z,2.83
2022-11-20T23:22:07.448Z,2.85
2022-11-20T23:24:33.752Z,2.82
2022-11-20T23:27:00.349Z,2.84
2022-11-20T23:29:26.898Z,2.82
2022-11-20T23:31:53.269Z,2.85
2022-11-20T23:34:19.586Z,2.78
2022-11-20T23:36:45.900Z,2.82
2022-11-20T23:39:12.238Z,2.85
2022-11-20T23:41:38.599Z,2.80
2022-11-20T23:44:04.926Z,2.74
2022-11-20T23:46:31.575Z,2.74
2022-11-20T23:48:57.883Z,2.75
2022-11-20T23:51:24.200Z,2.69
2022-11-20T23:53:50.575Z,2.69
2022-11-20T23:56:17.003Z,2.55
2022-11-20T23:58:43.618Z,2.49
